Time;durP1;ratioP1;P1;durP2;ratioP2;P2;SDS_P1;SDS_P2;PMS_P1;PMS_P2;Temp;Humidity;BMP_temperature;BMP_pressure;BME280_temperature;BME280_humidity;BME280_pressure;Samples;Min_cycle;Max_cycle;Signal;HPM_P1;HPM_P2
2022/02/03 00:02:03;;;;;;;19.83;10.98;;;0.00;99.90;;;;;;4974783;28;20031;-75
2022/02/03 00:04:32;;;;;;;19.42;10.00;;;0.00;99.90;;;;;;4985525;28;20507;-76
2022/02/03 00:07:03;;;;;;;19.13;10.65;;;0.00;99.90;;;;;;4991817;28;20076;-75
2022/02/03 00:24:07;;;;;;;16.38;11.10;;;0.10;99.90;;;;;;4964162;28;20084;-75
2022/02/03 00:26:32;;;;;;;21.55;11.30;;;0.00;99.90;;;;;;4994949;28;20050;-76
2022/02/03 00:29:00;;;;;;;19.42;11.00;;;-0.20;99.90;;;;;;4977765;28;20018;-75
2022/02/03 00:31:55;;;;;;;19.33;11.70;;;-0.10;99.90;;;;;;4995171;28;20510;-75
2022/02/03 00:34:30;;;;;;;19.30;11.20;;;0.00;99.90;;;;;;4974678;28;20057;-75
2022/02/03 00:50:30;;;;;;;22.63;9.88;;;0.50;99.90;;;;;;4990928;28;20538;-76
2022/02/03 00:52:58;;;;;;;22.55;10.25;;;0.40;99.90;;;;;;4994947;28;20025;-75
2022/02/03 00:55:23;;;;;;;22.33;10.40;;;0.40;99.90;;;;;;4994867;28;20029;-75
2022/02/03 00:57:51;;;;;;;20.33;10.50;;;0.40;99.90;;;;;;4994858;28;20018;-76
2022/02/03 01:00:18;;;;;;;19.75;9.85;;;0.30;99.90;;;;;;4981476;28;20014;-75
2022/02/03 01:02:51;;;;;;;19.85;9.98;;;0.40;99.90;;;;;;4992219;28;20026;-75
2022/02/03 01:05:18;;;;;;;19.50;10.18;;;0.40;99.90;;;;;;4994613;28;20464;-75
2022/02/03 01:07:47;;;;;;;18.92;9.63;;;0.50;99.90;;;;;;4994755;28;20037;-75
2022/02/03 01:10:21;;;;;;;19.77;10.02;;;0.50;99.90;;;;;;4978321;28;20030;-75
2022/02/03 01:15:25;;;;;;;18.75;10.43;;;0.20;99.90;;;;;;4994333;28;20038;-75
2022/02/03 01:34:57;;;;;;;20.60;9.25;;;0.50;99.90;;;;;;4990120;28;20414;-77
2022/02/03 01:48:37;;;;;;;25.83;10.60;;;0.50;99.90;;;;;;4987925;28;20034;-76
2022/02/03 01:53:49;;;;;;;22.33;9.40;;;0.70;99.90;;;;;;4982821;28;20045;-77
2022/02/03 01:56:27;;;;;;;19.58;10.45;;;0.70;99.90;;;;;;4986059;28;20030;-77
2022/02/03 01:58:59;;;;;;;30.65;11.73;;;0.80;99.90;;;;;;4975545;28;20031;-76
2022/02/03 02:01:29;;;;;;;29.45;11.80;;;0.90;99.90;;;;;;4984300;28;20396;-76
2022/02/03 02:04:10;;;;;;;23.92;11.82;;;1.10;99.90;;;;;;4980991;28;20032;-76
2022/02/03 02:07:00;;;;;;;29.20;12.32;;;1.20;99.90;;;;;;4963282;28;20038;-76
2022/02/03 02:09:42;;;;;;;27.27;11.70;;;1.20;99.90;;;;;;4983195;28;20500;-76
2022/02/03 02:12:24;;;;;;;28.58;12.45;;;1.30;99.90;;;;;;4987256;28;20027;-75
2022/02/03 02:40:07;;;;;;;36.20;12.05;;;1.40;99.90;;;;;;4982610;28;20476;-72
2022/02/03 02:42:57;;;;;;;28.42;11.93;;;1.40;99.90;;;;;;4977850;28;20057;-73
2022/02/03 02:45:44;;;;;;;25.65;11.48;;;1.50;99.90;;;;;;4992111;28;20026;-73
2022/02/03 02:48:30;;;;;;;25.63;11.50;;;1.40;99.90;;;;;;4983645;28;20039;-75
2022/02/03 02:51:09;;;;;;;28.88;12.57;;;1.40;99.90;;;;;;4965436;28;20027;-76
2022/02/03 02:54:14;;;;;;;29.60;11.60;;;1.40;99.90;;;;;;4991198;28;20027;-75
2022/02/03 02:57:40;;;;;;;26.85;11.93;;;1.50;99.90;;;;;;4966878;28;20076;-75
2022/02/03 03:03:35;;;;;;;30.77;12.07;;;1.60;99.90;;;;;;4944345;29;20034;-76
2022/02/03 03:31:15;;;;;;;36.42;13.93;;;1.80;99.90;;;;;;4989899;28;20074;-73
2022/02/03 03:36:50;;;;;;;26.45;12.40;;;1.90;99.90;;;;;;4949978;29;20030;-75
2022/02/03 03:39:19;;;;;;;31.42;14.15;;;1.90;99.90;;;;;;4972248;28;20041;-74
2022/02/03 03:41:46;;;;;;;29.40;12.98;;;2.00;99.90;;;;;;4992074;28;20049;-74
2022/02/03 03:44:16;;;;;;;36.28;13.50;;;2.00;99.90;;;;;;4972284;28;20548;-73
2022/02/03 03:46:47;;;;;;;33.85;14.00;;;2.10;99.90;;;;;;4985985;28;20033;-75
2022/02/03 03:49:42;;;;;;;30.50;13.23;;;2.10;99.90;;;;;;4965824;28;20105;-75
2022/02/03 03:52:15;;;;;;;29.63;13.15;;;2.10;99.90;;;;;;4982949;28;20046;-76
2022/02/03 03:54:55;;;;;;;34.60;14.15;;;2.10;99.90;;;;;;4967946;28;20019;-76
2022/02/03 04:00:42;;;;;;;33.65;13.27;;;2.10;99.90;;;;;;4994842;28;20034;-76
2022/02/03 04:29:08;;;;;;;30.80;13.50;;;2.20;99.90;;;;;;4986421;28;20070;-76
2022/02/03 04:33:40;;;;;;;27.30;13.80;;;2.30;99.90;;;;;;4992365;28;20397;-77
2022/02/03 04:42:03;;;;;;;30.55;14.15;;;2.40;99.90;;;;;;4984844;28;20030;-77
2022/02/03 04:51:16;;;;;;;30.35;14.00;;;2.40;99.90;;;;;;4988708;28;20042;-76
2022/02/03 04:54:39;;;;;;;34.03;14.75;;;2.40;99.90;;;;;;4988594;28;20049;-77
2022/02/03 04:57:18;;;;;;;33.10;15.52;;;2.50;99.90;;;;;;4988090;28;20057;-77
2022/02/03 05:03:02;;;;;;;30.58;14.35;;;2.50;99.90;;;;;;4986511;28;20380;-76
2022/02/03 05:05:57;;;;;;;37.17;15.27;;;2.50;99.90;;;;;;4994907;28;20029;-76
2022/02/03 05:08:41;;;;;;;36.17;16.95;;;2.50;99.90;;;;;;4981479;28;20126;-75
2022/02/03 05:12:05;;;;;;;33.60;16.35;;;2.70;99.90;;;;;;4983077;28;20041;-76
2022/02/03 05:23:54;;;;;;;32.17;16.85;;;2.60;99.90;;;;;;4989341;28;20477;-77
2022/02/03 05:44:55;;;;;;;41.35;19.67;;;2.70;99.90;;;;;;4994159;28;20045;-73
2022/02/03 05:54:35;;;;;;;36.72;19.33;;;2.70;99.90;;;;;;4982275;28;20030;-73
2022/02/03 06:06:51;;;;;;;41.95;22.38;;;2.80;99.90;;;;;;4985657;28;20388;-74
2022/02/03 06:09:26;;;;;;;51.03;26.98;;;2.80;99.90;;;;;;4979977;28;20034;-74
2022/02/03 06:17:03;;;;;;;107.78;78.93;;;2.80;99.90;;;;;;4980511;28;20416;-74
2022/02/03 06:22:27;;;;;;;57.85;33.78;;;2.80;99.90;;;;;;4983677;28;20038;-74
2022/02/03 06:27:37;;;;;;;50.70;29.08;;;2.90;99.90;;;;;;4986561;28;20481;-74
2022/02/03 06:30:04;;;;;;;62.75;31.65;;;3.00;99.90;;;;;;4985416;28;20030;-74
2022/02/03 06:32:30;;;;;;;54.78;29.52;;;2.90;99.90;;;;;;4970498;28;20065;-74
2022/02/03 06:34:56;;;;;;;57.20;31.23;;;2.90;99.90;;;;;;4992554;28;20054;-74
2022/02/03 06:37:22;;;;;;;59.85;31.83;;;2.90;99.90;;;;;;4979771;28;20042;-76
2022/02/03 06:39:50;;;;;;;64.00;33.33;;;3.00;99.90;;;;;;4992874;28;20042;-75
2022/02/03 06:42:15;;;;;;;60.97;32.80;;;3.00;99.90;;;;;;4962545;28;20069;-76
2022/02/03 06:44:49;;;;;;;62.70;33.80;;;2.90;99.90;;;;;;4985414;28;20037;-76
2022/02/03 06:47:46;;;;;;;62.97;33.95;;;2.90;99.90;;;;;;4969187;28;20041;-75
2022/02/03 06:50:14;;;;;;;59.17;30.45;;;3.00;99.90;;;;;;4972211;28;20030;-76
2022/02/03 06:52:52;;;;;;;70.47;36.75;;;3.00;99.90;;;;;;4986605;28;20019;-75
2022/02/03 06:57:52;;;;;;;72.30;38.85;;;3.20;99.90;;;;;;4993160;28;20361;-76
2022/02/03 07:00:26;;;;;;;68.07;35.13;;;3.20;99.90;;;;;;4990974;28;20384;-74
2022/02/03 07:02:55;;;;;;;70.88;36.13;;;3.10;99.90;;;;;;4964878;28;20058;-74
2022/02/03 07:05:22;;;;;;;71.60;39.55;;;3.20;99.90;;;;;;4986217;28;20077;-74
2022/02/03 07:07:47;;;;;;;69.40;37.55;;;3.10;99.90;;;;;;4983498;28;20383;-73
2022/02/03 07:10:13;;;;;;;63.67;35.22;;;3.10;99.90;;;;;;4961829;28;20026;-74
2022/02/03 07:12:39;;;;;;;58.67;33.83;;;3.10;99.90;;;;;;4982154;28;20031;-73
2022/02/03 07:15:07;;;;;;;66.25;37.75;;;3.20;99.90;;;;;;4972592;28;20046;-74
2022/02/03 07:17:34;;;;;;;67.57;36.15;;;3.20;99.90;;;;;;4981911;28;20023;-74
2022/02/03 07:20:04;;;;;;;73.35;39.20;;;3.20;99.90;;;;;;4985638;28;20085;-74
2022/02/03 07:22:30;;;;;;;73.78;38.38;;;3.30;99.90;;;;;;4984088;28;20026;-75
2022/02/03 07:24:56;;;;;;;75.45;39.72;;;3.30;99.90;;;;;;4979262;28;20081;-75
2022/02/03 07:27:23;;;;;;;66.47;37.90;;;3.30;99.90;;;;;;4981650;28;20033;-75
2022/02/03 07:29:49;;;;;;;81.32;42.60;;;3.20;99.90;;;;;;4991677;28;20460;-75
2022/02/03 07:32:15;;;;;;;70.68;38.88;;;3.30;99.90;;;;;;4992078;28;20038;-74
2022/02/03 07:34:41;;;;;;;78.55;42.53;;;3.30;99.90;;;;;;4986151;28;20396;-74
2022/02/03 07:37:07;;;;;;;80.10;41.72;;;3.30;99.90;;;;;;4985539;28;20038;-76
2022/02/03 07:39:33;;;;;;;71.53;40.00;;;3.30;99.90;;;;;;4978964;28;20065;-75
2022/02/03 07:41:59;;;;;;;78.45;40.90;;;3.40;99.90;;;;;;4965197;28;20568;-76
2022/02/03 07:44:25;;;;;;;77.22;42.30;;;3.30;99.90;;;;;;4981366;28;20054;-75
2022/02/03 07:46:51;;;;;;;79.32;41.92;;;3.40;99.90;;;;;;4991935;28;20465;-75
2022/02/03 07:49:17;;;;;;;92.80;51.88;;;3.30;99.90;;;;;;4991749;28;20026;-75
2022/02/03 07:51:43;;;;;;;90.20;48.08;;;3.40;99.90;;;;;;4980064;28;20045;-76
2022/02/03 07:54:10;;;;;;;75.63;42.05;;;3.40;99.90;;;;;;4994243;28;20027;-76
2022/02/03 07:56:36;;;;;;;148.55;74.28;;;3.50;99.90;;;;;;4991607;28;20480;-76
2022/02/03 07:59:02;;;;;;;146.05;75.30;;;3.50;99.90;;;;;;4978152;28;20034;-75
2022/02/03 08:01:28;;;;;;;98.15;47.75;;;3.60;99.90;;;;;;4980612;28;20026;-75
2022/02/03 08:03:54;;;;;;;106.38;56.22;;;3.50;99.90;;;;;;4961625;28;20077;-75
2022/02/03 08:06:25;;;;;;;114.03;55.42;;;3.60;99.90;;;;;;4979155;28;20481;-76
2022/02/03 08:08:56;;;;;;;87.80;44.85;;;3.50;99.90;;;;;;4991960;28;20019;-76
2022/02/03 08:11:30;;;;;;;85.90;45.00;;;3.50;99.90;;;;;;4978732;28;20034;-75
2022/02/03 08:14:05;;;;;;;93.90;47.58;;;3.50;99.90;;;;;;4983166;28;20054;-76
2022/02/03 08:16:46;;;;;;;94.53;48.45;;;3.60;99.90;;;;;;4985654;28;20030;-75
2022/02/03 08:19:42;;;;;;;96.20;47.58;;;3.50;99.90;;;;;;4966855;28;20057;-75
2022/02/03 08:22:02;;;;;;;95.22;47.00;;;3.70;99.90;;;;;;4980025;28;20408;-75
2022/02/03 08:24:33;;;;;;;86.93;45.38;;;3.60;99.90;;;;;;4989617;28;20400;-74
2022/02/03 08:32:05;;;;;;;96.60;48.50;;;3.90;99.90;;;;;;4992148;28;20062;-74
2022/02/03 08:34:43;;;;;;;97.60;48.60;;;3.70;99.90;;;;;;4964991;28;20018;-73
2022/02/03 08:37:08;;;;;;;98.00;49.67;;;3.80;99.90;;;;;;4965231;28;20050;-74
2022/02/03 08:39:39;;;;;;;85.30;46.25;;;3.80;99.90;;;;;;4994669;28;20057;-74
2022/02/03 08:42:05;;;;;;;85.60;44.63;;;3.80;99.90;;;;;;4964490;28;20077;-74
2022/02/03 08:44:31;;;;;;;104.25;51.55;;;3.80;99.90;;;;;;4990357;28;20034;-73
2022/02/03 08:46:56;;;;;;;86.25;44.70;;;3.90;99.90;;;;;;4982204;28;20481;-73
2022/02/03 08:49:23;;;;;;;106.28;50.00;;;3.80;99.90;;;;;;4998675;28;20029;-73
2022/02/03 08:51:50;;;;;;;101.97;50.63;;;3.90;99.90;;;;;;5007782;28;20025;-73
2022/02/03 08:54:16;;;;;;;92.97;47.85;;;3.90;99.90;;;;;;4976006;28;20101;-73
2022/02/03 08:59:24;;;;;;;81.93;44.58;;;3.90;99.90;;;;;;4986919;28;20030;-73
2022/02/03 09:35:03;;;;;;;103.32;47.50;;;4.10;99.90;;;;;;4995004;28;20101;-74
2022/02/03 09:41:00;;;;;;;123.15;54.38;;;4.10;99.90;;;;;;4982758;28;20038;-75
2022/02/03 09:50:12;;;;;;;127.55;54.58;;;4.10;99.90;;;;;;4976042;28;20042;-75
2022/02/03 09:57:03;;;;;;;151.48;57.88;;;4.20;99.90;;;;;;4997028;28;20038;-73
2022/02/03 09:59:35;;;;;;;135.37;55.13;;;4.30;99.90;;;;;;4983137;28;20440;-73
2022/02/03 10:02:10;;;;;;;161.70;59.50;;;4.30;99.90;;;;;;4993448;28;20261;-73
2022/02/03 10:04:48;;;;;;;135.07;55.33;;;4.30;99.90;;;;;;4993851;28;20113;-73
2022/02/03 10:07:20;;;;;;;153.27;56.70;;;4.30;99.90;;;;;;4978780;28;20022;-73
2022/02/03 10:09:47;;;;;;;161.60;58.83;;;4.30;99.90;;;;;;4998627;28;20058;-73
2022/02/03 10:12:13;;;;;;;135.30;54.80;;;4.30;99.90;;;;;;5002362;28;20018;-73
2022/02/03 10:14:44;;;;;;;186.18;64.22;;;4.30;99.90;;;;;;5011279;28;20468;-73
2022/02/03 10:17:10;;;;;;;142.88;55.50;;;4.40;99.90;;;;;;4992253;28;20065;-73
2022/02/03 10:19:39;;;;;;;155.02;58.30;;;4.40;99.90;;;;;;4990967;28;20084;-73
2022/02/03 10:22:23;;;;;;;151.63;57.03;;;4.50;99.90;;;;;;4983087;28;20030;-73
2022/02/03 10:24:51;;;;;;;117.30;50.83;;;4.40;99.90;;;;;;4988364;28;20049;-73
2022/02/03 10:27:27;;;;;;;168.45;57.40;;;4.50;99.90;;;;;;4985620;28;20033;-74
2022/02/03 10:30:09;;;;;;;152.15;54.50;;;4.50;99.90;;;;;;4993090;28;20145;-74
2022/02/03 10:32:40;;;;;;;212.35;62.13;;;4.50;99.90;;;;;;4962847;28;20023;-74
2022/02/03 10:35:46;;;;;;;138.77;53.08;;;4.60;99.90;;;;;;4983756;28;20019;-74
2022/02/03 10:38:42;;;;;;;213.52;65.13;;;4.60;99.90;;;;;;4981846;28;20049;-74
2022/02/03 10:49:38;;;;;;;152.52;56.55;;;4.80;99.90;;;;;;4986679;28;20385;-74
2022/02/03 10:53:02;;;;;;;269.23;73.35;;;4.90;99.90;;;;;;4989879;28;20041;-74
2022/02/03 10:55:20;;;;;;;143.35;55.00;;;4.90;99.90;;;;;;4989618;28;20491;-74
2022/02/03 11:05:50;;;;;;;153.90;56.88;;;5.10;99.90;;;;;;4986487;28;20054;-74
2022/02/03 11:08:43;;;;;;;154.85;57.85;;;5.20;99.90;;;;;;4968818;28;20034;-74
2022/02/03 11:11:12;;;;;;;151.95;60.35;;;5.20;99.90;;;;;;4983441;28;20036;-74
2022/02/03 11:13:38;;;;;;;123.03;53.78;;;5.40;99.90;;;;;;4988032;28;20031;-74
2022/02/03 11:16:05;;;;;;;131.73;54.10;;;5.40;99.90;;;;;;4980189;28;20577;-74
2022/02/03 11:18:32;;;;;;;156.10;58.95;;;5.40;99.90;;;;;;4985959;28;20452;-74
2022/02/03 11:21:00;;;;;;;156.43;59.45;;;5.40;99.90;;;;;;4985448;28;20034;-76
2022/02/03 11:43:01;;;;;;;110.63;52.42;;;5.50;99.90;;;;;;4985688;28;20022;-74
2022/02/03 11:48:54;;;;;;;100.35;51.00;;;5.60;99.90;;;;;;4981312;28;20030;-75
2022/02/03 11:51:10;;;;;;;91.95;47.58;;;5.50;99.90;;;;;;4977061;28;20049;-74
2022/02/03 12:14:12;;;;;;;65.25;37.95;;;6.50;99.90;;;;;;4989146;28;20611;-75
2022/02/03 12:22:38;;;;;;;63.13;37.58;;;6.40;99.90;;;;;;4995067;28;20391;-74
2022/02/03 12:25:39;;;;;;;60.30;38.08;;;6.40;99.90;;;;;;4990659;28;20030;-74
2022/02/03 12:39:13;;;;;;;60.53;36.50;;;6.40;99.90;;;;;;5002831;28;20464;-75
2022/02/03 12:41:59;;;;;;;54.55;34.65;;;6.50;99.90;;;;;;4972903;28;20026;-75
2022/02/03 12:44:27;;;;;;;58.65;34.60;;;6.50;99.90;;;;;;4995211;28;20023;-75
2022/02/03 12:46:54;;;;;;;61.22;35.95;;;6.50;99.90;;;;;;4994951;28;20513;-75
2022/02/03 12:49:21;;;;;;;53.15;32.95;;;6.60;99.90;;;;;;4994607;28;20101;-75
2022/02/03 12:51:49;;;;;;;52.17;33.13;;;6.60;99.90;;;;;;4994877;28;20361;-75
2022/02/03 12:54:16;;;;;;;55.60;35.47;;;6.60;99.90;;;;;;4994907;28;20018;-75
2022/02/03 12:56:42;;;;;;;55.10;33.40;;;6.60;99.90;;;;;;4977539;28;20068;-75
2022/02/03 12:59:09;;;;;;;53.72;32.38;;;6.60;99.90;;;;;;4978427;28;20084;-76
2022/02/03 13:01:38;;;;;;;51.78;33.50;;;6.60;99.90;;;;;;4994700;28;20021;-75
2022/02/03 13:04:11;;;;;;;57.25;33.75;;;6.60;99.90;;;;;;4994648;28;20026;-75
2022/02/03 13:06:42;;;;;;;53.97;33.70;;;6.60;99.90;;;;;;4994800;28;20109;-75
2022/02/03 13:09:09;;;;;;;47.83;31.52;;;6.60;99.90;;;;;;4994477;28;20030;-75
2022/02/03 13:11:51;;;;;;;50.53;32.00;;;6.60;99.90;;;;;;4989859;28;20166;-75
2022/02/03 13:17:23;;;;;;;53.10;34.05;;;6.50;99.90;;;;;;4961481;28;20088;-74
2022/02/03 13:20:02;;;;;;;50.65;32.58;;;6.50;99.90;;;;;;4994167;28;20388;-74
2022/02/03 13:22:46;;;;;;;56.20;34.03;;;6.60;99.90;;;;;;4977463;28;20049;-74
2022/02/03 13:28:12;;;;;;;51.15;34.00;;;6.60;99.90;;;;;;4956938;28;20046;-74
2022/02/03 13:30:48;;;;;;;51.50;35.60;;;6.60;99.90;;;;;;4994627;28;20019;-75
2022/02/03 13:33:19;;;;;;;57.13;35.78;;;6.70;99.90;;;;;;4990951;28;20080;-74
2022/02/03 13:35:56;;;;;;;46.85;30.55;;;6.60;99.90;;;;;;4974403;28;20027;-74
2022/02/03 13:38:41;;;;;;;43.90;30.23;;;6.60;99.90;;;;;;4994220;28;20014;-77
2022/02/03 13:41:16;;;;;;;47.35;31.17;;;6.60;99.90;;;;;;4988367;28;20026;-77
2022/02/03 13:43:43;;;;;;;43.75;29.08;;;6.60;99.90;;;;;;4970513;28;20381;-77
2022/02/03 13:46:10;;;;;;;50.85;31.65;;;6.60;99.90;;;;;;4965239;28;20076;-77
2022/02/03 13:48:38;;;;;;;42.90;30.10;;;6.70;99.90;;;;;;4965451;28;20034;-74
2022/02/03 13:51:08;;;;;;;48.63;33.38;;;6.70;99.90;;;;;;4993881;28;20022;-74
2022/02/03 14:15:43;;;;;;;34.90;26.25;;;6.80;99.90;;;;;;4990340;28;20105;-74
2022/02/03 14:18:17;;;;;;;35.85;27.45;;;6.80;99.90;;;;;;4993507;28;20663;-74
2022/02/03 14:29:13;;;;;;;27.25;20.67;;;6.90;99.90;;;;;;4972671;28;20045;-74
2022/02/03 14:31:39;;;;;;;25.98;20.08;;;6.80;99.90;;;;;;4980537;28;20034;-74
2022/02/03 14:34:14;;;;;;;23.80;19.33;;;6.80;99.90;;;;;;4994045;28;20093;-74
2022/02/03 14:36:42;;;;;;;22.50;17.60;;;6.70;99.90;;;;;;4965016;28;20022;-74
2022/02/03 14:39:16;;;;;;;21.20;17.85;;;6.80;99.90;;;;;;4992790;28;20074;-74
2022/02/03 14:41:47;;;;;;;18.27;16.02;;;6.80;99.90;;;;;;4993004;28;20423;-74
2022/02/03 14:44:16;;;;;;;23.02;20.52;;;6.80;99.90;;;;;;4980288;28;20023;-74
2022/02/03 14:46:46;;;;;;;20.20;18.13;;;6.80;99.90;;;;;;4993009;28;20057;-74
2022/02/03 14:49:11;;;;;;;18.55;16.48;;;6.80;99.90;;;;;;4979797;28;20029;-74
2022/02/03 14:51:49;;;;;;;19.42;17.08;;;6.70;99.90;;;;;;4981449;28;20019;-74
2022/02/03 14:59:37;;;;;;;19.08;17.02;;;6.80;99.90;;;;;;4984505;28;20508;-74
2022/02/03 15:02:07;;;;;;;21.20;18.02;;;6.70;99.90;;;;;;4992455;28;20034;-74
2022/02/03 15:04:39;;;;;;;21.00;17.67;;;6.70;99.90;;;;;;4992711;28;20019;-74
2022/02/03 15:07:08;;;;;;;22.65;20.25;;;6.60;99.90;;;;;;4992629;28;20050;-74
2022/02/03 15:12:26;;;;;;;20.08;17.98;;;6.70;99.90;;;;;;4980728;28;20022;-74
2022/02/03 15:14:51;;;;;;;18.27;16.15;;;6.70;99.90;;;;;;4989457;28;20030;-74
2022/02/03 15:17:20;;;;;;;15.88;14.27;;;6.70;99.90;;;;;;4965330;28;20559;-73
2022/02/03 15:19:46;;;;;;;15.77;13.55;;;6.70;99.90;;;;;;4979382;28;20113;-74
2022/02/03 15:22:11;;;;;;;13.85;12.43;;;6.60;99.90;;;;;;4992309;28;20441;-74
2022/02/03 15:24:37;;;;;;;12.40;11.20;;;6.60;99.90;;;;;;4979362;28;20448;-74
2022/02/03 15:27:04;;;;;;;11.52;10.35;;;6.60;99.90;;;;;;4965413;28;20117;-74
2022/02/03 15:29:30;;;;;;;12.82;11.52;;;6.60;99.90;;;;;;4976079;28;20034;-73
2022/02/03 15:31:56;;;;;;;13.88;12.48;;;6.70;99.90;;;;;;4984426;28;20105;-74
2022/02/03 15:34:22;;;;;;;15.05;13.55;;;6.70;99.90;;;;;;4987807;28;20037;-74
2022/02/03 15:36:52;;;;;;;13.95;12.55;;;6.60;99.90;;;;;;4982347;28;20027;-73
2022/02/03 15:39:30;;;;;;;13.73;12.45;;;6.60;99.90;;;;;;4968176;28;20194;-74
2022/02/03 15:41:56;;;;;;;14.88;13.25;;;6.60;99.90;;;;;;4969381;28;20045;-74
2022/02/03 15:44:24;;;;;;;13.05;11.75;;;6.60;99.90;;;;;;4978547;28;20051;-74
2022/02/03 15:47:03;;;;;;;13.63;12.25;;;6.50;99.90;;;;;;4995062;28;20053;-75
2022/02/03 15:50:36;;;;;;;11.13;10.02;;;6.50;99.90;;;;;;4981018;28;20030;-75
2022/02/03 16:03:40;;;;;;;6.00;5.32;;;6.50;99.90;;;;;;4999185;28;20029;-74
2022/02/03 16:15:01;;;;;;;5.45;4.63;;;6.50;99.90;;;;;;4996571;28;20053;-73
2022/02/03 16:17:00;;;;;;;4.28;3.58;;;6.60;99.90;;;;;;4994952;28;20026;-73
2022/02/03 16:19:34;;;;;;;4.55;4.13;;;6.70;99.90;;;;;;4978420;28;20033;-73
2022/02/03 16:22:07;;;;;;;4.25;3.85;;;6.80;99.90;;;;;;4994483;28;20476;-73
2022/02/03 16:24:46;;;;;;;5.57;4.80;;;6.70;99.90;;;;;;4995920;28;20773;-73
2022/02/03 16:41:26;;;;;;;14.10;12.60;;;6.60;99.90;;;;;;4994136;28;20531;-74
2022/02/03 16:54:29;;;;;;;8.32;7.53;;;6.50;99.90;;;;;;4991501;28;20030;-74
2022/02/03 16:57:00;;;;;;;12.07;10.82;;;6.50;99.90;;;;;;4975850;28;20361;-74
2022/02/03 16:59:29;;;;;;;8.73;7.82;;;6.50;99.90;;;;;;4993618;28;20026;-74
2022/02/03 17:01:54;;;;;;;7.18;6.47;;;6.50;99.90;;;;;;4991944;28;20025;-74
2022/02/03 17:04:20;;;;;;;9.20;7.95;;;6.50;99.90;;;;;;4993648;28;20026;-74
2022/02/03 17:06:46;;;;;;;8.90;7.53;;;6.40;99.90;;;;;;4976278;28;20057;-74
2022/02/03 17:09:12;;;;;;;8.88;7.28;;;6.40;99.90;;;;;;4993582;28;20033;-74
2022/02/03 17:11:38;;;;;;;7.85;7.13;;;6.40;99.90;;;;;;4993704;28;20026;-74
2022/02/03 17:14:03;;;;;;;7.85;6.65;;;6.40;99.90;;;;;;4993526;28;20022;-74
2022/02/03 17:16:29;;;;;;;6.93;6.32;;;6.50;99.90;;;;;;4993756;28;20030;-74
2022/02/03 17:18:57;;;;;;;7.47;6.80;;;6.40;99.90;;;;;;4993224;28;20025;-74
2022/02/03 17:21:26;;;;;;;7.93;7.22;;;6.40;99.90;;;;;;4993260;28;20022;-74
2022/02/03 17:23:51;;;;;;;7.65;6.90;;;6.50;99.90;;;;;;4993434;28;20026;-74
2022/02/03 17:26:25;;;;;;;6.63;6.03;;;6.50;99.90;;;;;;4992496;28;20026;-74
2022/02/03 17:29:03;;;;;;;11.52;10.35;;;6.40;99.90;;;;;;4992380;28;20085;-74
2022/02/03 18:05:35;;;;;;;15.13;13.32;;;6.30;99.90;;;;;;4992090;28;20073;-74
2022/02/03 18:10:11;;;;;;;12.27;11.07;;;6.30;99.90;;;;;;4992703;28;20469;-74
2022/02/03 18:26:53;;;;;;;12.18;10.98;;;6.20;99.90;;;;;;4992355;28;20033;-73
2022/02/03 18:29:36;;;;;;;12.85;11.55;;;6.20;99.90;;;;;;4992075;28;20037;-73
2022/02/03 18:35:08;;;;;;;14.20;12.70;;;6.30;99.90;;;;;;4992096;28;20026;-74
2022/02/03 18:53:04;;;;;;;12.70;11.50;;;6.30;99.90;;;;;;4955375;28;20037;-75
2022/02/03 18:58:32;;;;;;;14.88;13.38;;;6.20;99.90;;;;;;4967979;28;20026;-75
2022/02/03 19:28:18;;;;;;;16.38;14.68;;;6.10;99.90;;;;;;4992354;28;20029;-75
2022/02/03 20:01:23;;;;;;;18.77;16.77;;;6.10;99.90;;;;;;4988616;28;20109;-76
2022/02/03 20:11:42;;;;;;;14.05;12.68;;;6.20;99.90;;;;;;4991985;28;20060;-76
2022/02/03 20:14:14;;;;;;;13.95;12.55;;;6.20;99.90;;;;;;4974503;28;20046;-75
2022/02/03 20:16:41;;;;;;;13.45;12.15;;;6.20;99.90;;;;;;4992065;28;20524;-74
2022/02/03 20:19:07;;;;;;;13.57;12.18;;;6.30;99.90;;;;;;4974625;28;20138;-74
2022/02/03 20:21:35;;;;;;;13.27;12.07;;;6.30;99.90;;;;;;4987706;28;20051;-74
2022/02/03 20:24:01;;;;;;;13.45;12.15;;;6.30;99.90;;;;;;4973614;28;20026;-74
2022/02/03 20:26:26;;;;;;;14.40;13.00;;;6.30;99.90;;;;;;4987710;28;20080;-75
2022/02/03 20:28:52;;;;;;;14.52;13.18;;;6.30;99.90;;;;;;4975799;28;20577;-74
2022/02/03 20:31:17;;;;;;;12.77;11.57;;;6.30;99.90;;;;;;4994047;28;20029;-75
2022/02/03 20:33:43;;;;;;;12.05;10.85;;;6.30;99.90;;;;;;4978134;28;20536;-75
2022/02/03 20:36:09;;;;;;;12.35;11.23;;;6.40;99.90;;;;;;4988278;28;20015;-75
2022/02/03 20:38:35;;;;;;;13.45;12.02;;;6.40;99.90;;;;;;4995234;28;20037;-75
2022/02/03 20:41:02;;;;;;;13.23;11.95;;;6.30;99.90;;;;;;4995427;28;20049;-75
2022/02/03 20:43:28;;;;;;;12.63;11.30;;;6.30;99.90;;;;;;4995301;28;20050;-75
2022/02/03 20:45:54;;;;;;;13.55;12.05;;;6.30;99.90;;;;;;4996966;28;20049;-74
2022/02/03 20:48:19;;;;;;;13.95;12.65;;;6.30;99.90;;;;;;4995202;28;20023;-75
2022/02/03 20:50:46;;;;;;;14.25;12.95;;;6.30;99.90;;;;;;4995012;28;20014;-75
2022/02/03 20:53:13;;;;;;;13.65;12.25;;;6.20;99.90;;;;;;4995111;28;20018;-75
2022/02/03 20:55:42;;;;;;;13.38;12.18;;;6.30;99.90;;;;;;4995519;28;20018;-75
2022/02/03 20:58:12;;;;;;;13.65;12.35;;;6.30;99.90;;;;;;4994913;28;20022;-76
2022/02/03 21:00:48;;;;;;;14.07;12.70;;;6.30;99.90;;;;;;5001412;28;20029;-76
2022/02/03 21:05:40;;;;;;;13.20;11.95;;;6.30;99.90;;;;;;4995190;28;20019;-76
2022/02/03 21:08:05;;;;;;;12.73;11.52;;;6.20;99.90;;;;;;4977249;28;20029;-76
2022/02/03 21:10:32;;;;;;;12.43;11.23;;;6.20;99.90;;;;;;4994591;28;20038;-76
2022/02/03 21:12:58;;;;;;;11.93;10.82;;;6.30;99.90;;;;;;4994544;28;20065;-76
2022/02/03 21:15:43;;;;;;;12.18;11.07;;;6.30;99.90;;;;;;4994808;28;20469;-76
2022/02/03 21:18:11;;;;;;;12.07;10.87;;;6.20;99.90;;;;;;4994468;28;20030;-74
2022/02/03 21:20:39;;;;;;;11.57;10.48;;;6.20;99.90;;;;;;4994440;28;20113;-74
2022/02/03 21:23:05;;;;;;;10.88;9.88;;;6.30;99.90;;;;;;4993278;28;20023;-74
2022/02/03 21:25:36;;;;;;;11.13;10.13;;;6.30;99.90;;;;;;4994506;28;20361;-75
2022/02/03 21:28:19;;;;;;;11.80;10.70;;;6.30;99.90;;;;;;4994441;28;20388;-75
2022/02/03 21:30:44;;;;;;;13.23;11.93;;;6.30;99.90;;;;;;4976684;28;20022;-75
2022/02/03 21:33:14;;;;;;;11.73;10.63;;;6.30;99.90;;;;;;4994394;28;20141;-76
2022/02/03 21:35:44;;;;;;;11.77;10.60;;;6.30;99.90;;;;;;4976910;28;20476;-76
2022/02/03 21:38:10;;;;;;;10.52;9.52;;;6.40;99.90;;;;;;4972201;28;20507;-76
2022/02/03 21:40:35;;;;;;;10.88;9.90;;;6.40;99.90;;;;;;4976468;28;20026;-76
2022/02/03 21:43:01;;;;;;;10.38;9.48;;;6.40;99.90;;;;;;4976692;28;20019;-76
2022/02/03 21:45:27;;;;;;;11.02;10.00;;;6.40;99.90;;;;;;4992730;28;20150;-76
2022/02/03 21:47:53;;;;;;;10.88;9.88;;;6.40;99.90;;;;;;4978114;28;20037;-76
2022/02/03 21:50:20;;;;;;;11.68;10.57;;;6.40;99.90;;;;;;4995760;28;20427;-76
2022/02/03 21:52:50;;;;;;;12.00;10.90;;;6.40;99.90;;;;;;5009366;28;20084;-75
2022/02/03 21:55:16;;;;;;;12.63;11.43;;;6.40;99.90;;;;;;4994194;28;20019;-75
2022/02/03 21:57:45;;;;;;;13.38;12.07;;;6.40;99.90;;;;;;5002912;28;20084;-75
2022/02/03 22:00:12;;;;;;;13.02;11.73;;;6.40;99.90;;;;;;4995149;28;21234;-75
2022/02/03 22:02:38;;;;;;;13.48;12.07;;;6.50;99.90;;;;;;4993800;28;20085;-75
2022/02/03 22:05:07;;;;;;;13.27;12.05;;;6.40;99.90;;;;;;4993442;28;20019;-76
2022/02/03 22:07:33;;;;;;;13.88;12.48;;;6.40;99.90;;;;;;4993821;28;20041;-75
2022/02/03 22:09:59;;;;;;;13.80;12.18;;;6.30;99.90;;;;;;4993474;28;20054;-76
2022/02/03 22:12:25;;;;;;;14.48;12.98;;;6.30;99.90;;;;;;4993610;28;20030;-76
2022/02/03 22:14:50;;;;;;;14.07;12.68;;;6.30;99.90;;;;;;4983730;28;20023;-75
2022/02/03 22:17:16;;;;;;;14.43;13.02;;;6.30;99.90;;;;;;4976141;28;20018;-75
2022/02/03 22:19:48;;;;;;;11.93;10.82;;;6.20;99.90;;;;;;4976302;28;20177;-75
2022/02/03 22:22:38;;;;;;;11.80;10.68;;;6.30;99.90;;;;;;4993328;28;20023;-75
2022/02/03 22:25:35;;;;;;;10.40;9.32;;;6.20;99.90;;;;;;4993282;28;20502;-75
2022/02/03 22:28:23;;;;;;;10.73;9.30;;;6.10;99.90;;;;;;4993308;28;20029;-75
2022/02/03 22:39:16;;;;;;;12.48;10.45;;;6.10;99.90;;;;;;4992935;28;20396;-75
2022/02/03 22:47:18;;;;;;;10.57;9.48;;;6.00;99.90;;;;;;4993237;28;20029;-75
2022/02/03 22:49:40;;;;;;;10.45;9.35;;;6.10;99.90;;;;;;4992764;28;20499;-74
2022/02/03 22:52:06;;;;;;;10.15;8.80;;;6.00;99.90;;;;;;4991877;28;20034;-75
2022/02/03 22:54:32;;;;;;;10.60;9.55;;;6.00;99.90;;;;;;4992841;28;20471;-73
2022/02/03 22:56:57;;;;;;;10.48;9.48;;;6.00;99.90;;;;;;4992592;28;20048;-74
2022/02/03 23:01:54;;;;;;;11.13;9.35;;;5.90;99.90;;;;;;4993121;28;20018;-74